Time;durP1;ratioP1;P1;durP2;ratioP2;P2;SDS_P1;SDS_P2;PMS_P1;PMS_P2;Temp;Humidity;BMP_temperature;BMP_pressure;BME280_temperature;BME280_humidity;BME280_pressure;Samples;Min_cycle;Max_cycle;Signal;HPM_P1;HPM_P2
2022/11/04 06:57:49;;;;;;;3.40;1.42;;;;;;;;;;10545832;28;20411;-83
2022/11/04 07:02:50;;;;;;;4.78;2.42;;;;;;;;;;10526548;28;20132;-83
2022/11/04 07:07:57;;;;;;;3.17;1.58;;;;;;;;;;10528061;28;20052;-83
2022/11/04 07:12:58;;;;;;;2.88;1.40;;;;;;;;;;10531066;28;20024;-83
2022/11/04 07:17:58;;;;;;;;;;;;;;;;;;10532875;28;20035;-83
2022/11/04 07:23:00;;;;;;;2.05;1.38;;;;;;;;;;10526624;28;19905;-84
2022/11/04 07:28:01;;;;;;;2.33;1.13;;;;;;;;;;10539188;28;20032;-83
2022/11/04 07:33:02;;;;;;;3.00;1.50;;;;;;;;;;10555263;28;20498;-83
2022/11/04 07:38:03;;;;;;;3.45;1.45;;;;;;;;;;10553088;28;20033;-83
2022/11/04 07:43:05;;;;;;;3.80;1.52;;;;;;;;;;10564852;28;20017;-83
2022/11/04 07:48:07;;;;;;;2.20;1.27;;;;;;;;;;10565370;28;20033;-81
2022/11/04 07:53:08;;;;;;;3.00;1.38;;;;;;;;;;10549902;28;20038;-83
2022/11/04 07:58:09;;;;;;;4.13;1.60;;;;;;;;;;10533236;28;20071;-84
2022/11/04 08:03:10;;;;;;;2.92;1.40;;;;;;;;;;10538435;28;20021;-80
2022/11/04 08:08:11;;;;;;;2.80;1.10;;;;;;;;;;10513113;28;20039;-81
2022/11/04 08:13:12;;;;;;;;;;;;;;;;;;10517712;28;20035;-82
2022/11/04 08:18:13;;;;;;;4.13;1.30;;;;;;;;;;10503690;28;19908;-83
2022/11/04 08:23:14;;;;;;;4.00;1.70;;;;;;;;;;10501007;28;20029;-83
2022/11/04 08:28:18;;;;;;;;;;;;;;;;;;10513360;28;20051;-83
2022/11/04 08:33:19;;;;;;;3.63;1.52;;;;;;;;;;10494291;28;20381;-83
2022/11/04 08:38:20;;;;;;;3.47;1.58;;;;;;;;;;10497114;28;20028;-83
2022/11/04 08:43:22;;;;;;;4.88;1.67;;;;;;;;;;10494929;28;20458;-84
2022/11/04 08:48:23;;;;;;;7.13;2.10;;;;;;;;;;10494178;28;20112;-82
2022/11/04 08:53:24;;;;;;;5.75;3.58;;;;;;;;;;10493600;28;20190;-81
2022/11/04 08:58:25;;;;;;;4.82;2.00;;;;;;;;;;10493661;28;20459;-84
2022/11/04 09:03:31;;;;;;;2.88;1.40;;;;;;;;;;10494057;28;20033;-83
2022/11/04 09:08:32;;;;;;;4.70;1.88;;;;;;;;;;10493470;28;20112;-83
2022/11/04 09:13:33;;;;;;;4.95;2.10;;;;;;;;;;10493029;28;20120;-84
2022/11/04 09:18:37;;;;;;;5.60;2.13;;;;;;;;;;10492811;28;20123;-83
2022/11/04 09:23:38;;;;;;;5.55;2.20;;;;;;;;;;10499456;28;20024;-81
2022/11/04 09:28:40;;;;;;;4.50;2.05;;;;;;;;;;10504676;28;20312;-84
2022/11/04 09:33:41;;;;;;;5.25;1.90;;;;;;;;;;10491114;28;20054;-82
2022/11/04 09:38:43;;;;;;;6.13;2.20;;;;;;;;;;10510969;28;20385;-84
2022/11/04 09:44:11;;;;;;;7.07;3.30;;;;;;;;;;10494944;28;20021;-84
2022/11/04 09:49:15;;;;;;;6.00;1.65;;;;;;;;;;10501784;22;20100;-85
2022/11/04 09:54:57;;;;;;;4.47;1.85;;;;;;;;;;10407777;28;20089;-84
2022/11/04 10:00:02;;;;;;;4.15;1.73;;;;;;;;;;10418962;28;20083;-85
2022/11/04 10:05:22;;;;;;;4.43;1.90;;;;;;;;;;10447494;28;20051;-85
2022/11/04 10:10:26;;;;;;;6.60;2.42;;;;;;;;;;10452336;28;20119;-85
2022/11/04 10:15:50;;;;;;;4.80;2.10;;;;;;;;;;10442013;28;20037;-85
2022/11/04 10:20:54;;;;;;;6.18;2.10;;;;;;;;;;10466127;28;20431;-85
2022/11/04 10:26:05;;;;;;;6.90;1.88;;;;;;;;;;10467000;28;20033;-86
2022/11/04 10:31:06;;;;;;;5.97;2.40;;;;;;;;;;10451096;28;20040;-85
2022/11/04 10:36:09;;;;;;;5.25;2.30;;;;;;;;;;10449371;28;20037;-83
2022/11/04 10:42:03;;;;;;;3.90;2.05;;;;;;;;;;10483247;28;20108;-85
2022/11/04 10:47:27;;;;;;;5.93;2.17;;;;;;;;;;10350596;28;20029;-85
2022/11/04 10:52:28;;;;;;;6.10;2.75;;;;;;;;;;10449307;28;20044;-85
2022/11/04 10:57:29;;;;;;;3.85;2.40;;;;;;;;;;10469374;28;20033;-83
2022/11/04 11:02:58;;;;;;;5.30;1.90;;;;;;;;;;10450279;28;20020;-84
2022/11/04 11:08:05;;;;;;;5.18;2.15;;;;;;;;;;10416643;28;20033;-83
2022/11/04 11:13:07;;;;;;;3.70;1.85;;;;;;;;;;10452712;28;20031;-84
2022/11/04 11:18:11;;;;;;;4.47;2.15;;;;;;;;;;10449889;28;20028;-84
2022/11/04 11:23:31;;;;;;;5.93;3.00;;;;;;;;;;10451536;28;20078;-85
2022/11/04 11:28:37;;;;;;;5.23;2.00;;;;;;;;;;10452431;28;20120;-85
2022/11/04 11:33:48;;;;;;;6.65;2.70;;;;;;;;;;10452653;28;20040;-84
2022/11/04 11:39:08;;;;;;;4.43;2.15;;;;;;;;;;10451228;28;20043;-85
2022/11/04 11:44:31;;;;;;;8.17;3.43;;;;;;;;;;10457384;28;20044;-84
2022/11/04 11:49:36;;;;;;;5.95;3.78;;;;;;;;;;10473661;28;20044;-83
2022/11/04 11:54:38;;;;;;;5.38;2.17;;;;;;;;;;10474476;28;20029;-85
2022/11/04 11:59:51;;;;;;;6.93;2.35;;;;;;;;;;10495644;28;20025;-85
2022/11/04 12:04:55;;;;;;;10.68;7.38;;;;;;;;;;10481577;28;20029;-84
2022/11/04 12:10:02;;;;;;;5.30;2.40;;;;;;;;;;10501398;28;20025;-84
2022/11/04 12:15:06;;;;;;;5.57;2.72;;;;;;;;;;10481288;28;20037;-85
2022/11/04 12:20:07;;;;;;;6.05;3.60;;;;;;;;;;10476922;28;20017;-86
2022/11/04 12:25:31;;;;;;;6.53;3.10;;;;;;;;;;10454864;28;20033;-81
2022/11/04 12:30:36;;;;;;;8.10;4.00;;;;;;;;;;10445851;28;20037;-82
2022/11/04 12:35:56;;;;;;;5.32;3.47;;;;;;;;;;10455624;28;20059;-83
2022/11/04 12:41:05;;;;;;;5.80;3.20;;;;;;;;;;10454631;28;20024;-84
2022/11/04 12:46:12;;;;;;;7.70;3.35;;;;;;;;;;10453384;28;20075;-83
2022/11/04 12:51:32;;;;;;;4.93;2.90;;;;;;;;;;10450582;28;20110;-82
2022/11/04 12:56:37;;;;;;;5.40;2.67;;;;;;;;;;10452455;28;20025;-83
2022/11/04 13:01:43;;;;;;;6.88;2.67;;;;;;;;;;10452358;28;20032;-83
2022/11/04 13:06:47;;;;;;;10.07;2.70;;;;;;;;;;10452107;28;20033;-83
2022/11/04 13:11:52;;;;;;;7.28;3.20;;;;;;;;;;10451174;28;20028;-83
2022/11/04 13:16:53;;;;;;;6.90;3.35;;;;;;;;;;10451042;28;20032;-83
2022/11/04 13:21:56;;;;;;;7.35;3.80;;;;;;;;;;10468970;28;20056;-84
2022/11/04 13:27:03;;;;;;;5.82;3.05;;;;;;;;;;10451639;28;20459;-83
2022/11/04 13:32:07;;;;;;;5.65;2.85;;;;;;;;;;10466527;28;20532;-83
2022/11/04 13:37:12;;;;;;;4.75;2.55;;;;;;;;;;10449433;28;20025;-83
2022/11/04 13:42:13;;;;;;;4.20;2.50;;;;;;;;;;10450479;28;20497;-83
2022/11/04 13:47:19;;;;;;;7.78;3.40;;;;;;;;;;10452215;28;20021;-84
2022/11/04 13:52:22;;;;;;;6.35;3.53;;;;;;;;;;10449434;28;20032;-82
2022/11/04 13:57:27;;;;;;;10.00;4.25;;;;;;;;;;10448882;28;20123;-83
2022/11/04 14:02:41;;;;;;;6.53;3.65;;;;;;;;;;10450742;28;20033;-81
2022/11/04 14:08:07;;;;;;;6.13;3.50;;;;;;;;;;10450720;28;20054;-83
2022/11/04 14:13:44;;;;;;;5.65;3.28;;;;;;;;;;10449957;28;20447;-82
2022/11/04 14:18:49;;;;;;;7.70;4.40;;;;;;;;;;10362009;28;20049;-82
2022/11/04 14:23:51;;;;;;;6.30;4.05;;;;;;;;;;10457470;28;20128;-81
2022/11/04 14:29:05;;;;;;;6.80;3.75;;;;;;;;;;10456135;28;20024;-81
2022/11/04 14:34:08;;;;;;;5.68;3.40;;;;;;;;;;10456509;28;20061;-81
2022/11/04 14:39:12;;;;;;;4.65;2.85;;;;;;;;;;10459296;28;20052;-81
2022/11/04 14:44:20;;;;;;;6.72;3.00;;;;;;;;;;10458193;28;20032;-82
2022/11/04 14:49:39;;;;;;;5.78;3.03;;;;;;;;;;10455345;28;20033;-81
2022/11/04 14:54:41;;;;;;;6.63;3.42;;;;;;;;;;10452375;28;20096;-81
2022/11/04 14:59:42;;;;;;;6.22;3.42;;;;;;;;;;10455722;28;20499;-81
2022/11/04 15:04:48;;;;;;;6.03;2.90;;;;;;;;;;10457085;28;20029;-81
2022/11/04 15:09:50;;;;;;;5.95;2.97;;;;;;;;;;10457741;28;20028;-82
2022/11/04 15:14:52;;;;;;;5.70;2.90;;;;;;;;;;10449908;28;20056;-84
2022/11/04 15:19:54;;;;;;;4.22;2.35;;;;;;;;;;10457486;28;20037;-85
2022/11/04 15:25:04;;;;;;;5.82;3.08;;;;;;;;;;10459777;28;20075;-84
2022/11/04 15:30:27;;;;;;;4.85;2.47;;;;;;;;;;10484350;28;20096;-84
2022/11/04 15:35:32;;;;;;;5.78;3.10;;;;;;;;;;10488525;28;20040;-84
2022/11/04 15:40:34;;;;;;;6.05;3.35;;;;;;;;;;10476538;28;20035;-84
2022/11/04 15:45:37;;;;;;;4.22;2.70;;;;;;;;;;10457570;28;20427;-84
2022/11/04 15:50:39;;;;;;;4.43;2.70;;;;;;;;;;10495686;22;20048;-86
2022/11/04 15:55:43;;;;;;;6.18;3.20;;;;;;;;;;10509667;28;20448;-87
2022/11/04 16:00:51;;;;;;;4.40;2.58;;;;;;;;;;10508484;28;20020;-85
2022/11/04 16:06:03;;;;;;;4.07;2.35;;;;;;;;;;10511750;28;20029;-84
2022/11/04 16:11:09;;;;;;;4.00;2.50;;;;;;;;;;10530410;28;20053;-85
2022/11/04 16:16:24;;;;;;;4.50;2.10;;;;;;;;;;10521249;28;20025;-86
2022/11/04 16:21:36;;;;;;;6.97;2.30;;;;;;;;;;10520534;28;20070;-85
2022/11/04 16:26:43;;;;;;;6.70;2.95;;;;;;;;;;10521250;28;20378;-86
2022/11/04 16:31:44;;;;;;;4.97;2.83;;;;;;;;;;10519261;28;20028;-86
2022/11/04 16:36:46;;;;;;;5.35;2.13;;;;;;;;;;10496524;28;20056;-86
2022/11/04 16:41:47;;;;;;;4.68;2.28;;;;;;;;;;10459926;28;20025;-86
2022/11/04 16:46:48;;;;;;;6.10;2.80;;;;;;;;;;10454826;28;20503;-86
2022/11/04 16:51:53;;;;;;;4.20;2.40;;;;;;;;;;10464146;28;20491;-86
2022/11/04 16:56:55;;;;;;;4.40;2.30;;;;;;;;;;10456838;28;20425;-86
2022/11/04 17:01:56;;;;;;;6.22;2.53;;;;;;;;;;10456092;28;20017;-85
2022/11/04 17:06:57;;;;;;;4.70;2.50;;;;;;;;;;10455232;28;20036;-83
2022/11/04 17:11:58;;;;;;;7.28;3.60;;;;;;;;;;10455332;28;20036;-84
2022/11/04 17:16:59;;;;;;;5.10;2.38;;;;;;;;;;10457967;28;20029;-82
2022/11/04 17:22:12;;;;;;;5.53;3.30;;;;;;;;;;10464895;28;20081;-85
2022/11/04 17:27:28;;;;;;;7.75;3.95;;;;;;;;;;10462492;28;20506;-86
2022/11/04 17:32:34;;;;;;;5.82;4.07;;;;;;;;;;10448552;28;20146;-86
2022/11/04 17:37:51;;;;;;;5.95;3.55;;;;;;;;;;10454856;28;20076;-86
2022/11/04 17:48:46;;;;;;;;;;;;;;;;;;10470133;28;20021;-85
2022/11/04 17:53:54;;;;;;;6.82;4.80;;;;;;;;;;10470736;28;20035;-85
2022/11/04 17:58:55;;;;;;;5.57;3.58;;;;;;;;;;10455361;28;20086;-85
2022/11/04 18:03:57;;;;;;;6.60;4.25;;;;;;;;;;10473716;28;20096;-85
2022/11/04 18:08:58;;;;;;;7.78;4.90;;;;;;;;;;10439496;28;20067;-85
2022/11/04 18:13:59;;;;;;;5.45;3.58;;;;;;;;;;10455146;28;20112;-85
2022/11/04 18:19:01;;;;;;;5.63;4.00;;;;;;;;;;10453397;28;20025;-85
2022/11/04 18:24:08;;;;;;;7.60;4.20;;;;;;;;;;10453730;28;20106;-85
2022/11/04 18:29:14;;;;;;;6.50;4.50;;;;;;;;;;10452259;28;20469;-85
2022/11/04 18:39:41;;;;;;;5.00;3.60;;;;;;;;;;10449034;28;20359;-85
2022/11/04 18:44:42;;;;;;;6.13;4.32;;;;;;;;;;10476048;28;20422;-84
2022/11/04 18:49:44;;;;;;;6.97;4.45;;;;;;;;;;10506867;28;20040;-84
2022/11/04 18:54:48;;;;;;;5.60;3.97;;;;;;;;;;10509294;28;20181;-84
2022/11/04 18:59:49;;;;;;;5.75;4.25;;;;;;;;;;10509329;28;20025;-85
2022/11/04 19:04:59;;;;;;;8.15;5.00;;;;;;;;;;10513079;28;20033;-85
2022/11/04 19:10:01;;;;;;;7.00;4.88;;;;;;;;;;10510457;28;20111;-86
2022/11/04 19:15:06;;;;;;;5.38;4.45;;;;;;;;;;10512075;28;20025;-85
2022/11/04 19:20:09;;;;;;;4.65;3.75;;;;;;;;;;10511842;28;20430;-86
2022/11/04 19:25:10;;;;;;;6.13;4.18;;;;;;;;;;10478918;28;20036;-85
2022/11/04 19:30:17;;;;;;;3.85;3.03;;;;;;;;;;10534442;28;20482;-85
2022/11/04 19:35:22;;;;;;;8.00;6.30;;;;;;;;;;10516332;28;20024;-85
2022/11/04 19:40:24;;;;;;;5.28;4.00;;;;;;;;;;10475708;28;20115;-85
2022/11/04 19:45:33;;;;;;;6.60;4.80;;;;;;;;;;10515604;28;20021;-85
2022/11/04 19:50:44;;;;;;;4.82;3.20;;;;;;;;;;10512604;28;20164;-87
2022/11/04 19:55:53;;;;;;;3.78;3.15;;;;;;;;;;10474585;28;20044;-87
2022/11/04 20:00:54;;;;;;;4.80;4.10;;;;;;;;;;10519096;28;20017;-88
2022/11/04 20:05:55;;;;;;;4.30;3.30;;;;;;;;;;10510255;28;20032;-86
2022/11/04 20:11:01;;;;;;;5.22;4.22;;;;;;;;;;10506560;28;20111;-87
2022/11/04 20:16:15;;;;;;;6.35;4.10;;;;;;;;;;10505606;28;20037;-88
2022/11/04 20:21:21;;;;;;;6.25;5.32;;;;;;;;;;10505650;28;20032;-87
